createdAt,value
2019-03-12T00:01:06.990Z,4.40
2019-03-12T00:03:36.676Z,4.30
2019-03-12T00:06:06.439Z,4.30
2019-03-12T00:08:36.078Z,4.30
2019-03-12T00:11:06.014Z,4.30
2019-03-12T00:13:35.722Z,4.30
2019-03-12T00:16:05.494Z,4.30
2019-03-12T00:18:35.183Z,4.30
2019-03-12T00:21:05.002Z,4.30
2019-03-12T00:23:34.815Z,4.30
2019-03-12T00:26:04.713Z,4.40
2019-03-12T00:28:34.663Z,4.30
2019-03-12T00:31:04.444Z,4.30
2019-03-12T00:33:34.211Z,4.30
2019-03-12T00:36:03.898Z,4.30
2019-03-12T00:38:33.566Z,4.30
2019-03-12T00:41:03.294Z,4.30
2019-03-12T00:43:33.044Z,4.20
2019-03-12T00:46:02.790Z,4.20
2019-03-12T00:48:32.468Z,4.20
2019-03-12T00:51:02.143Z,4.20
2019-03-12T00:53:31.853Z,4.20
2019-03-12T00:56:01.571Z,4.20
2019-03-12T00:58:31.283Z,4.20
2019-03-12T01:01:01.595Z,4.10
2019-03-12T01:03:31.307Z,4.10
2019-03-12T01:06:01.095Z,4.10
2019-03-12T01:08:30.815Z,4.10
2019-03-12T01:11:00.571Z,4.10
2019-03-12T01:13:30.304Z,4.10
2019-03-12T01:16:00.009Z,4.10
2019-03-12T01:18:29.693Z,4.10
2019-03-12T01:20:59.395Z,4.10
2019-03-12T01:23:29.200Z,4.00
2019-03-12T01:25:58.922Z,4.00
2019-03-12T01:28:28.603Z,3.90
2019-03-12T01:30:58.497Z,3.90
2019-03-12T01:33:28.233Z,3.90
2019-03-12T01:35:57.904Z,3.90
2019-03-12T01:38:28.656Z,3.90
2019-03-12T01:40:58.393Z,3.90
2019-03-12T01:43:28.098Z,3.90
2019-03-12T01:45:57.916Z,3.90
2019-03-12T01:48:27.691Z,3.90
2019-03-12T01:50:57.437Z,3.90
2019-03-12T01:53:27.147Z,3.90
2019-03-12T01:55:57.091Z,3.90
2019-03-12T01:58:26.846Z,4.00
2019-03-12T02:00:56.589Z,3.90
2019-03-12T02:03:26.371Z,3.90
2019-03-12T02:05:56.146Z,3.90
2019-03-12T02:08:26.052Z,3.80
2019-03-12T02:10:55.914Z,3.80
2019-03-12T02:13:25.594Z,3.80
2019-03-12T02:15:55.443Z,3.80
2019-03-12T02:18:25.089Z,3.80
2019-03-12T02:20:54.845Z,3.80
2019-03-12T02:23:24.524Z,3.80
2019-03-12T02:25:54.326Z,3.80
2019-03-12T02:28:24.133Z,3.70
2019-03-12T02:30:53.992Z,3.70
2019-03-12T02:33:23.890Z,3.80
2019-03-12T02:35:53.639Z,3.80
2019-03-12T02:38:23.422Z,3.70
2019-03-12T02:40:53.246Z,3.80
2019-03-12T02:43:23.054Z,3.70
2019-03-12T02:45:52.818Z,3.70
2019-03-12T02:48:22.514Z,3.70
2019-03-12T02:50:52.353Z,3.70
2019-03-12T02:53:22.164Z,3.70
2019-03-12T02:55:51.837Z,3.70
2019-03-12T02:58:21.522Z,3.70
2019-03-12T03:00:51.204Z,3.70
2019-03-12T03:03:20.929Z,3.60
2019-03-12T03:05:55.392Z,3.70
2019-03-12T03:08:26.748Z,3.60
2019-03-12T03:10:56.548Z,3.60
2019-03-12T03:13:26.245Z,3.70
2019-03-12T03:15:55.899Z,3.70
2019-03-12T03:18:25.752Z,3.60
2019-03-12T03:20:55.396Z,3.60
2019-03-12T03:23:25.138Z,3.70
2019-03-12T03:25:54.809Z,3.60
2019-03-12T03:28:24.515Z,3.60
2019-03-12T03:30:54.517Z,3.60
2019-03-12T03:33:24.296Z,3.60
2019-03-12T03:35:53.980Z,3.60
2019-03-12T03:38:23.737Z,3.50
2019-03-12T03:40:53.402Z,3.50
2019-03-12T03:43:23.201Z,3.60
2019-03-12T03:45:53.355Z,3.50
2019-03-12T03:48:23.005Z,3.60
2019-03-12T03:50:52.769Z,3.60
2019-03-12T03:53:22.419Z,3.60
2019-03-12T03:55:52.096Z,3.60
2019-03-12T03:58:21.742Z,3.60
2019-03-12T04:00:51.420Z,3.60
2019-03-12T04:03:21.169Z,3.60
2019-03-12T04:05:50.982Z,3.60
2019-03-12T04:08:21.044Z,3.70
2019-03-12T04:10:52.004Z,3.70
2019-03-12T04:13:21.822Z,3.60
2019-03-12T04:15:51.896Z,3.60
2019-03-12T04:18:21.677Z,3.60
2019-03-12T04:20:51.356Z,3.70
2019-03-12T04:23:21.190Z,3.80
2019-03-12T04:25:50.925Z,3.70
2019-03-12T04:28:20.626Z,3.70
2019-03-12T04:30:50.353Z,3.80
2019-03-12T04:33:53.421Z,3.80
2019-03-12T04:36:23.138Z,3.80
2019-03-12T04:38:52.811Z,3.70
2019-03-12T04:41:22.515Z,3.80
2019-03-12T04:43:52.202Z,3.80
2019-03-12T04:46:21.916Z,3.80
2019-03-12T04:48:51.603Z,3.80
2019-03-12T04:51:21.342Z,3.80
2019-03-12T04:53:51.080Z,3.90
2019-03-12T04:56:20.934Z,3.90
2019-03-12T04:58:50.593Z,3.90
2019-03-12T05:01:20.331Z,4.00
2019-03-12T05:03:49.983Z,4.00
2019-03-12T05:06:20.152Z,4.00
2019-03-12T05:08:50.118Z,4.00
2019-03-12T05:11:20.018Z,4.10
2019-03-12T05:14:24.638Z,4.10
2019-03-12T05:17:01.985Z,4.20
2019-03-12T05:19:31.735Z,4.20
2019-03-12T05:22:01.396Z,4.20
2019-03-12T05:24:31.109Z,4.30
2019-03-12T05:27:00.770Z,4.30
2019-03-12T05:29:30.449Z,4.30
2019-03-12T05:32:00.146Z,4.30
2019-03-12T05:34:29.906Z,4.30
2019-03-12T05:36:59.610Z,4.30
2019-03-12T05:39:29.367Z,4.40
2019-03-12T05:41:59.102Z,4.40
2019-03-12T05:44:28.773Z,4.40
2019-03-12T05:46:58.533Z,4.40
2019-03-12T05:49:28.270Z,4.40
2019-03-12T05:51:58.085Z,4.40
2019-03-12T05:54:27.915Z,4.40
2019-03-12T05:56:57.674Z,4.50
2019-03-12T05:59:27.367Z,4.50
2019-03-12T06:01:57.085Z,4.50
2019-03-12T06:04:26.811Z,4.50
2019-03-12T06:06:56.548Z,4.50
2019-03-12T06:09:30.507Z,4.50
2019-03-12T06:11:58.673Z,4.60
2019-03-12T06:14:28.304Z,4.50
2019-03-12T06:16:58.282Z,4.50
2019-03-12T06:19:28.009Z,4.50
2019-03-12T06:21:57.721Z,4.60
2019-03-12T06:24:27.363Z,4.70
2019-03-12T06:26:57.082Z,4.70
2019-03-12T06:29:26.754Z,4.80
2019-03-12T06:31:58.096Z,4.80
2019-03-12T06:34:29.495Z,4.80
2019-03-12T06:37:00.859Z,4.80
2019-03-12T06:39:50.410Z,4.80
2019-03-12T06:42:21.829Z,4.90
2019-03-12T06:44:53.224Z,4.90
2019-03-12T06:47:30.730Z,5.00
2019-03-12T06:50:04.953Z,5.00
2019-03-12T06:52:42.533Z,5.00
2019-03-12T06:55:26.078Z,5.00
2019-03-12T06:58:25.757Z,5.00
2019-03-12T07:00:55.263Z,5.00
2019-03-12T07:03:25.097Z,5.10
2019-03-12T07:05:56.442Z,5.10
2019-03-12T07:08:43.125Z,5.10
2019-03-12T07:11:30.294Z,5.10
2019-03-12T07:14:17.913Z,5.10
2019-03-12T07:16:49.243Z,5.10
2019-03-12T07:19:33.734Z,5.20
2019-03-12T07:22:07.609Z,5.20
2019-03-12T07:24:41.507Z,5.30
2019-03-12T07:27:28.875Z,5.30
2019-03-12T07:30:16.682Z,5.30
2019-03-12T07:32:50.526Z,5.40
2019-03-12T07:35:22.608Z,5.40
2019-03-12T07:37:59.027Z,5.40
2019-03-12T07:40:46.425Z,5.50
2019-03-12T07:43:17.766Z,5.50
2019-03-12T07:45:49.219Z,5.50
2019-03-12T07:48:20.517Z,5.50
2019-03-12T07:50:58.718Z,5.60
2019-03-12T07:53:30.090Z,5.60
2019-03-12T07:56:01.518Z,5.70
2019-03-12T07:58:44.548Z,5.70
2019-03-12T08:01:18.590Z,5.70
2019-03-12T08:03:58.987Z,5.90
2019-03-12T08:06:27.298Z,5.90
2019-03-12T08:09:01.682Z,6.00
2019-03-12T08:11:33.066Z,6.10
2019-03-12T08:14:11.380Z,6.20
2019-03-12T08:16:46.934Z,6.20
2019-03-12T08:19:21.314Z,6.30
2019-03-12T08:21:50.773Z,6.40
2019-03-12T08:24:22.054Z,6.40
2019-03-12T08:26:56.276Z,6.50
2019-03-12T08:29:45.701Z,6.60
2019-03-12T08:32:20.093Z,6.60
2019-03-12T08:35:00.475Z,6.70
2019-03-12T08:37:40.598Z,6.80
2019-03-12T08:40:12.569Z,6.90
2019-03-12T08:42:59.757Z,6.90
2019-03-12T08:45:48.887Z,7.10
2019-03-12T08:48:31.752Z,7.10
2019-03-12T08:51:18.861Z,7.10
2019-03-12T08:54:02.187Z,7.30
2019-03-12T08:56:33.534Z,7.30
2019-03-12T08:59:10.322Z,7.40
2019-03-12T09:01:44.021Z,7.40
2019-03-12T09:04:17.326Z,7.50
2019-03-12T09:06:54.374Z,7.60
2019-03-12T09:09:32.443Z,7.60
2019-03-12T09:12:16.337Z,7.70
2019-03-12T09:14:45.809Z,7.70
2019-03-12T09:17:22.882Z,7.70
2019-03-12T09:19:57.206Z,7.80
2019-03-12T09:22:31.005Z,7.90
2019-03-12T09:25:11.993Z,8.00
2019-03-12T09:28:12.082Z,8.00
2019-03-12T09:30:44.502Z,8.00
2019-03-12T09:33:15.809Z,8.10
2019-03-12T09:36:03.747Z,8.20
2019-03-12T09:38:35.114Z,8.20
2019-03-12T09:41:16.116Z,8.30
2019-03-12T09:44:02.519Z,8.30
2019-03-12T09:46:36.854Z,8.30
2019-03-12T09:49:08.273Z,8.30
2019-03-12T09:51:48.461Z,8.30
2019-03-12T09:54:20.682Z,8.30
2019-03-12T09:56:57.781Z,8.40
2019-03-12T09:59:45.162Z,8.40
2019-03-12T10:02:22.661Z,8.40
2019-03-12T10:05:06.096Z,8.30
2019-03-12T10:07:40.042Z,8.40
2019-03-12T10:10:30.580Z,8.50
2019-03-12T10:13:15.222Z,8.50
2019-03-12T10:15:53.404Z,8.60
2019-03-12T10:18:40.973Z,8.60
2019-03-12T10:21:21.086Z,8.70
2019-03-12T10:24:10.718Z,8.70
2019-03-12T10:26:44.930Z,8.70
2019-03-12T10:29:16.262Z,8.90
2019-03-12T10:32:03.411Z,8.90
2019-03-12T10:34:32.994Z,8.90
2019-03-12T10:37:11.951Z,9.00
2019-03-12T10:40:16.008Z,9.10
2019-03-12T10:43:03.112Z,9.10
2019-03-12T10:45:52.607Z,9.20
2019-03-12T10:48:22.400Z,9.20
2019-03-12T10:50:52.254Z,9.40
2019-03-12T10:53:22.023Z,9.50
2019-03-12T10:55:51.702Z,9.50
2019-03-12T10:58:21.412Z,9.50
2019-03-12T11:00:51.199Z,9.60
2019-03-12T11:03:21.000Z,9.60
2019-03-12T11:05:51.180Z,9.60
2019-03-12T11:08:21.695Z,9.70
2019-03-12T11:10:51.461Z,9.60
2019-03-12T11:13:21.207Z,9.60
2019-03-12T11:15:51.001Z,9.70
2019-03-12T11:18:20.825Z,9.70
2019-03-12T11:20:50.617Z,9.60
2019-03-12T11:23:20.325Z,9.60
2019-03-12T11:25:50.081Z,9.70
2019-03-12T11:28:19.974Z,9.80
2019-03-12T11:30:51.044Z,9.90
2019-03-12T11:33:20.795Z,10.00
2019-03-12T11:35:50.645Z,10.00
2019-03-12T11:38:20.430Z,10.00
2019-03-12T11:40:50.216Z,10.00
2019-03-12T11:43:20.049Z,10.00
2019-03-12T11:45:49.779Z,9.80
2019-03-12T11:48:19.462Z,10.00
2019-03-12T11:50:49.513Z,10.00
2019-03-12T11:53:19.430Z,10.10
2019-03-12T11:55:49.225Z,10.10
2019-03-12T11:58:19.040Z,10.10
2019-03-12T12:00:53.572Z,10.10
2019-03-12T12:03:23.386Z,10.10
2019-03-12T12:05:53.301Z,10.20
2019-03-12T12:08:23.053Z,10.20
2019-03-12T12:10:52.947Z,10.20
2019-03-12T12:13:22.619Z,10.30
2019-03-12T12:15:52.467Z,10.30
2019-03-12T12:18:22.527Z,10.30
2019-03-12T12:20:52.413Z,10.30
2019-03-12T12:23:22.248Z,10.20
2019-03-12T12:25:52.129Z,10.20
2019-03-12T12:28:21.936Z,10.20
2019-03-12T12:30:51.627Z,10.30
2019-03-12T12:33:21.672Z,10.30
2019-03-12T12:35:51.412Z,10.40
2019-03-12T12:38:21.146Z,10.40
2019-03-12T12:40:50.993Z,10.50
2019-03-12T12:43:20.741Z,10.60
2019-03-12T12:45:50.490Z,10.60
2019-03-12T12:48:20.150Z,10.70
2019-03-12T12:51:02.381Z,10.70
2019-03-12T12:53:21.763Z,10.80
2019-03-12T12:55:51.449Z,10.80
2019-03-12T12:58:21.290Z,10.80
2019-03-12T13:00:51.076Z,10.90
2019-03-12T13:03:20.952Z,10.80
2019-03-12T13:05:50.916Z,10.80
2019-03-12T13:08:20.652Z,10.90
2019-03-12T13:10:50.469Z,10.90
2019-03-12T13:13:20.232Z,10.90
2019-03-12T13:15:50.017Z,11.00
2019-03-12T13:18:19.958Z,11.00
2019-03-12T13:20:49.804Z,11.00
2019-03-12T13:23:19.797Z,10.90
2019-03-12T13:25:50.045Z,10.90
2019-03-12T13:28:19.936Z,10.90
2019-03-12T13:30:49.741Z,10.90
2019-03-12T13:33:19.508Z,10.90
2019-03-12T13:35:49.649Z,11.00
2019-03-12T13:38:19.821Z,11.00
2019-03-12T13:40:49.902Z,11.10
2019-03-12T13:43:19.975Z,11.10
2019-03-12T13:45:49.769Z,11.20
2019-03-12T13:48:19.516Z,11.20
2019-03-12T13:50:49.418Z,11.10
2019-03-12T13:53:19.221Z,11.10
2019-03-12T13:55:48.957Z,11.00
2019-03-12T13:58:18.648Z,10.90
2019-03-12T14:00:48.483Z,10.90
2019-03-12T14:03:18.165Z,10.90
2019-03-12T14:05:47.867Z,10.70
2019-03-12T14:08:17.592Z,10.70
2019-03-12T14:10:47.558Z,10.70
2019-03-12T14:13:17.405Z,10.70
2019-03-12T14:15:47.453Z,10.60
2019-03-12T14:18:17.293Z,10.60
2019-03-12T14:20:50.368Z,10.60
2019-03-12T14:23:33.570Z,10.60
2019-03-12T14:26:03.458Z,10.60
2019-03-12T14:28:33.393Z,10.50
2019-03-12T14:31:03.295Z,10.50
2019-03-12T14:33:33.261Z,10.50
2019-03-12T14:36:02.998Z,10.50
2019-03-12T14:38:32.888Z,10.50
2019-03-12T14:41:02.638Z,10.50
2019-03-12T14:43:32.570Z,10.60
2019-03-12T14:46:02.518Z,10.60
2019-03-12T14:48:50.771Z,10.60
2019-03-12T14:51:30.899Z,10.60
2019-03-12T14:54:11.937Z,10.60
2019-03-12T14:56:42.454Z,10.70
2019-03-12T14:59:12.468Z,10.60
2019-03-12T15:01:42.326Z,10.60
2019-03-12T15:04:14.933Z,10.70
2019-03-12T15:06:43.737Z,10.70
2019-03-12T15:09:15.513Z,10.70
2019-03-12T15:11:45.748Z,10.70
2019-03-12T15:14:15.530Z,10.70
2019-03-12T15:16:45.787Z,10.70
2019-03-12T15:19:15.470Z,10.70
2019-03-12T15:21:45.277Z,10.70
2019-03-12T15:24:15.103Z,10.60
2019-03-12T15:26:44.813Z,10.50
2019-03-12T15:29:14.663Z,10.40
2019-03-12T16:10:58.524Z,10.80
2019-03-12T16:13:28.680Z,10.60
2019-03-12T16:15:58.526Z,10.50
2019-03-12T16:18:28.193Z,10.40
2019-03-12T16:20:58.013Z,10.40
2019-03-12T16:23:27.736Z,10.30
2019-03-12T16:25:57.611Z,10.30
2019-03-12T16:28:27.367Z,10.30
2019-03-12T16:30:57.233Z,10.30
2019-03-12T16:33:27.004Z,10.30
2019-03-12T16:35:56.892Z,10.30
2019-03-12T16:38:26.768Z,10.30
2019-03-12T16:40:56.518Z,10.20
2019-03-12T16:43:26.230Z,10.20
2019-03-12T16:45:56.009Z,10.20
2019-03-12T16:48:25.879Z,10.30
2019-03-12T16:50:55.544Z,10.30
2019-03-12T16:53:25.310Z,10.20
2019-03-12T16:55:55.140Z,10.20
2019-03-12T16:58:24.863Z,10.20
2019-03-12T17:00:54.672Z,10.20
2019-03-12T17:03:24.489Z,10.20
2019-03-12T17:05:54.245Z,10.20
2019-03-12T17:08:23.994Z,10.20
2019-03-12T17:10:58.467Z,10.10
2019-03-12T17:13:25.385Z,10.10
2019-03-12T17:15:55.249Z,10.10
2019-03-12T17:18:25.061Z,10.10
2019-03-12T17:20:54.821Z,10.10
2019-03-12T17:23:24.468Z,10.10
2019-03-12T17:25:54.229Z,10.00
2019-03-12T17:28:23.905Z,10.00
2019-03-12T17:30:53.672Z,10.00
2019-03-12T17:33:23.465Z,10.00
2019-03-12T17:35:53.711Z,10.00
2019-03-12T17:38:23.415Z,10.00
2019-03-12T17:40:53.236Z,10.00
2019-03-12T17:43:22.981Z,10.10
2019-03-12T17:45:52.706Z,10.20
2019-03-12T17:48:22.601Z,10.20
2019-03-12T17:50:52.418Z,10.10
2019-03-12T17:53:26.836Z,10.10
2019-03-12T17:55:56.556Z,10.10
2019-03-12T17:58:26.237Z,10.10
2019-03-12T18:00:55.980Z,10.10
2019-03-12T18:03:25.867Z,10.10
2019-03-12T18:05:55.549Z,10.00
2019-03-12T18:08:25.269Z,10.00
2019-03-12T18:10:54.914Z,10.00
2019-03-12T18:13:24.715Z,10.00
2019-03-12T18:15:54.509Z,10.00
2019-03-12T18:18:24.226Z,10.00
2019-03-12T18:20:53.985Z,9.90
2019-03-12T18:23:23.630Z,9.90
2019-03-12T18:25:54.165Z,9.90
2019-03-12T18:28:23.828Z,9.90
2019-03-12T18:30:53.469Z,9.90
2019-03-12T18:33:23.220Z,9.90
2019-03-12T18:35:53.007Z,9.90
2019-03-12T18:38:23.037Z,10.00
2019-03-12T18:40:52.848Z,10.00
2019-03-12T18:43:22.768Z,10.00
2019-03-12T18:45:52.787Z,10.00
2019-03-12T18:48:22.608Z,10.00
2019-03-12T18:50:52.895Z,10.20
2019-03-12T18:53:22.563Z,10.20
2019-03-12T18:55:56.926Z,10.10
2019-03-12T18:58:26.673Z,10.10
2019-03-12T19:00:58.107Z,10.10
2019-03-12T19:03:27.863Z,10.10
2019-03-12T19:05:57.600Z,10.10
2019-03-12T19:08:27.398Z,10.10
2019-03-12T19:10:57.266Z,10.10
2019-03-12T19:13:27.309Z,10.10
2019-03-12T19:15:57.137Z,10.10
2019-03-12T19:18:27.218Z,10.10
2019-03-12T19:20:57.088Z,10.00
2019-03-12T19:23:26.847Z,10.00
2019-03-12T19:25:56.815Z,9.90
2019-03-12T19:28:26.771Z,9.80
2019-03-12T19:30:58.298Z,9.80
2019-03-12T19:33:29.272Z,9.80
2019-03-12T19:35:58.919Z,9.70
2019-03-12T19:38:28.758Z,9.70
2019-03-12T19:40:59.707Z,9.60
2019-03-12T19:43:29.447Z,9.60
2019-03-12T19:46:00.297Z,9.60
2019-03-12T19:48:30.820Z,9.50
2019-03-12T19:51:00.610Z,9.50
2019-03-12T19:53:30.485Z,9.50
2019-03-12T19:56:04.063Z,9.50
2019-03-12T19:58:33.782Z,9.50
2019-03-12T20:01:05.080Z,9.50
2019-03-12T20:03:34.741Z,9.40
2019-03-12T20:06:04.781Z,9.50
2019-03-12T20:08:34.578Z,9.40
2019-03-12T20:11:42.112Z,9.40
2019-03-12T20:14:58.882Z,9.30
2019-03-12T20:18:07.829Z,9.20
2019-03-12T20:20:53.898Z,9.30
2019-03-12T20:24:07.744Z,9.20
2019-03-12T20:27:06.195Z,9.10
2019-03-12T20:30:11.705Z,9.10
2019-03-12T20:32:54.969Z,9.10
2019-03-12T20:36:03.390Z,9.10
2019-03-12T20:39:11.980Z,9.10
2019-03-12T20:42:25.533Z,9.10
2019-03-12T20:45:08.875Z,9.10
2019-03-12T20:48:05.724Z,9.20
2019-03-12T20:51:13.556Z,9.20
2019-03-12T20:54:02.235Z,9.30
2019-03-12T20:57:02.269Z,9.30
2019-03-12T21:00:19.268Z,9.30
2019-03-12T21:03:24.804Z,9.30
2019-03-12T21:06:37.647Z,9.20
2019-03-12T21:09:36.342Z,8.60
2019-03-12T21:12:48.033Z,8.20
2019-03-12T21:15:42.320Z,7.80
2019-03-12T21:18:38.062Z,7.50
2019-03-12T21:21:21.095Z,7.30
2019-03-12T21:24:13.186Z,7.10
2019-03-12T21:27:05.315Z,7.00
2019-03-12T21:29:46.362Z,6.90
2019-03-12T21:32:17.941Z,6.80
2019-03-12T21:34:48.509Z,6.70
2019-03-12T21:37:18.551Z,6.50
2019-03-12T21:39:55.274Z,6.50
2019-03-12T21:42:20.035Z,6.40
2019-03-12T21:44:50.066Z,6.40
2019-03-12T21:47:19.820Z,6.30
2019-03-12T21:49:49.506Z,6.30
2019-03-12T21:52:19.364Z,6.30
2019-03-12T21:54:49.024Z,6.30
2019-03-12T21:57:18.715Z,6.30
2019-03-12T21:59:48.379Z,6.30
2019-03-12T22:02:18.334Z,6.20
2019-03-12T22:04:48.026Z,6.30
2019-03-12T22:07:17.684Z,6.20
2019-03-12T22:09:47.533Z,6.20
2019-03-12T22:12:17.197Z,6.20
2019-03-12T22:14:46.889Z,6.20
2019-03-12T22:17:16.610Z,6.20
2019-03-12T22:19:46.371Z,6.30
2019-03-12T22:22:17.780Z,6.30
2019-03-12T22:24:47.469Z,6.30
2019-03-12T22:27:17.290Z,6.30
2019-03-12T22:29:46.994Z,6.30
2019-03-12T22:32:16.718Z,6.30
2019-03-12T22:34:46.473Z,6.30
2019-03-12T22:37:16.191Z,6.30
2019-03-12T22:39:45.964Z,6.30
2019-03-12T22:42:15.725Z,6.30
2019-03-12T22:44:45.446Z,6.30
2019-03-12T22:47:15.186Z,6.30
2019-03-12T22:49:45.085Z,6.30
2019-03-12T22:52:14.814Z,6.40
2019-03-12T22:54:44.471Z,6.30
2019-03-12T22:57:14.210Z,6.40
2019-03-12T22:59:43.989Z,6.40
2019-03-12T23:02:13.760Z,6.40
2019-03-12T23:04:43.480Z,6.40
2019-03-12T23:07:13.248Z,6.40
2019-03-12T23:09:43.060Z,6.40
2019-03-12T23:12:12.827Z,6.40
2019-03-12T23:14:42.621Z,6.40
2019-03-12T23:17:12.496Z,6.40
2019-03-12T23:19:42.318Z,6.50
2019-03-12T23:22:12.014Z,6.50
2019-03-12T23:24:41.825Z,6.50
2019-03-12T23:27:11.627Z,6.50
2019-03-12T23:29:41.303Z,6.50
2019-03-12T23:32:11.145Z,6.40
2019-03-12T23:34:40.917Z,6.40
2019-03-12T23:37:10.558Z,6.40
2019-03-12T23:39:40.504Z,6.40
2019-03-12T23:42:10.295Z,6.50
2019-03-12T23:44:40.062Z,6.50
2019-03-12T23:47:09.932Z,6.40
2019-03-12T23:49:39.719Z,6.40
2019-03-12T23:52:09.607Z,6.50
2019-03-12T23:54:39.487Z,6.50
2019-03-12T23:57:09.397Z,6.40
2019-03-12T23:59:39.916Z,6.40
